sensor_id;sensor_type;location;lat;lon;timestamp;pressure;altitude;pressure_sealevel;temperature;humidity
6090;BME280;3073;42.660;23.316;2022-08-01T00:02:13;94443.91;;;20.28;100.00
6090;BME280;3073;42.660;23.316;2022-08-01T00:04:40;94446.66;;;20.31;100.00
6090;BME280;3073;42.660;23.316;2022-08-01T00:07:08;94447.06;;;20.25;100.00
6090;BME280;3073;42.660;23.316;2022-08-01T00:09:35;94446.50;;;20.28;100.00
6090;BME280;3073;42.660;23.316;2022-08-01T00:12:02;94440.03;;;20.25;100.00
6090;BME280;3073;42.660;23.316;2022-08-01T00:14:30;94446.13;;;20.21;100.00
6090;BME280;3073;42.660;23.316;2022-08-01T00:16:57;94443.78;;;20.11;100.00
6090;BME280;3073;42.660;23.316;2022-08-01T00:19:24;94440.69;;;20.09;100.00
6090;BME280;3073;42.660;23.316;2022-08-01T00:21:51;94441.28;;;20.05;100.00
6090;BME280;3073;42.660;23.316;2022-08-01T00:24:19;94449.97;;;20.01;100.00
6090;BME280;3073;42.660;23.316;2022-08-01T00:26:46;94439.59;;;20.01;100.00
6090;BME280;3073;42.660;23.316;2022-08-01T00:29:13;94445.06;;;19.99;100.00
6090;BME280;3073;42.660;23.316;2022-08-01T00:31:40;94443.53;;;19.98;100.00
6090;BME280;3073;42.660;23.316;2022-08-01T00:34:06;94437.88;;;19.96;100.00
6090;BME280;3073;42.660;23.316;2022-08-01T00:36:33;94440.34;;;20.01;100.00
6090;BME280;3073;42.660;23.316;2022-08-01T00:39:00;94437.88;;;19.96;100.00
6090;BME280;3073;42.660;23.316;2022-08-01T00:41:28;94444.97;;;20.04;100.00
6090;BME280;3073;42.660;23.316;2022-08-01T00:43:55;94442.06;;;20.06;100.00
6090;BME280;3073;42.660;23.316;2022-08-01T00:46:22;94447.47;;;19.96;100.00
6090;BME280;3073;42.660;23.316;2022-08-01T00:48:49;94439.97;;;20.08;100.00
6090;BME280;3073;42.660;23.316;2022-08-01T00:51:17;94447.47;;;19.96;100.00
6090;BME280;3073;42.660;23.316;2022-08-01T00:53:44;94438.38;;;19.76;100.00
6090;BME280;3073;42.660;23.316;2022-08-01T00:56:11;94440.59;;;19.69;100.00
6090;BME280;3073;42.660;23.316;2022-08-01T00:58:39;94441.66;;;19.68;100.00
6090;BME280;3073;42.660;23.316;2022-08-01T01:01:06;94441.88;;;19.58;100.00
6090;BME280;3073;42.660;23.316;2022-08-01T01:03:32;94438.63;;;19.52;100.00
6090;BME280;3073;42.660;23.316;2022-08-01T01:06:14;94427.34;;;19.48;100.00
6090;BME280;3073;42.660;23.316;2022-08-01T01:08:50;94420.34;;;19.35;100.00
6090;BME280;3073;42.660;23.316;2022-08-01T01:11:25;94418.47;;;19.41;100.00
6090;BME280;3073;42.660;23.316;2022-08-01T01:14:01;94417.47;;;19.37;100.00
6090;BME280;3073;42.660;23.316;2022-08-01T01:16:30;94417.00;;;19.35;100.00
6090;BME280;3073;42.660;23.316;2022-08-01T01:19:01;94419.97;;;19.28;100.00
6090;BME280;3073;42.660;23.316;2022-08-01T01:21:45;94418.88;;;19.21;100.00
6090;BME280;3073;42.660;23.316;2022-08-01T01:24:21;94415.91;;;19.14;100.00
6090;BME280;3073;42.660;23.316;2022-08-01T01:26:56;94414.75;;;19.20;100.00
6090;BME280;3073;42.660;23.316;2022-08-01T01:29:27;94411.97;;;19.16;100.00
6090;BME280;3073;42.660;23.316;2022-08-01T01:31:59;94411.69;;;19.18;100.00
6090;BME280;3073;42.660;23.316;2022-08-01T01:34:30;94408.44;;;19.12;100.00
6090;BME280;3073;42.660;23.316;2022-08-01T01:36:59;94404.72;;;19.05;100.00
6090;BME280;3073;42.660;23.316;2022-08-01T01:39:30;94395.44;;;19.03;100.00
6090;BME280;3073;42.660;23.316;2022-08-01T01:41:57;94399.06;;;19.02;100.00
6090;BME280;3073;42.660;23.316;2022-08-01T01:44:29;94396.97;;;19.05;100.00
6090;BME280;3073;42.660;23.316;2022-08-01T01:46:57;94396.38;;;19.08;100.00
6090;BME280;3073;42.660;23.316;2022-08-01T01:49:27;94386.78;;;19.08;100.00
6090;BME280;3073;42.660;23.316;2022-08-01T01:51:56;94398.41;;;18.97;100.00
6090;BME280;3073;42.660;23.316;2022-08-01T01:54:28;94383.09;;;19.00;100.00
6090;BME280;3073;42.660;23.316;2022-08-01T01:56:56;94381.09;;;18.97;98.13
6090;BME280;3073;42.660;23.316;2022-08-01T01:59:28;94393.13;;;19.02;93.43
6090;BME280;3073;42.660;23.316;2022-08-01T02:01:59;94391.94;;;19.22;85.01
6090;BME280;3073;42.660;23.316;2022-08-01T02:04:29;94383.94;;;19.32;84.33
6090;BME280;3073;42.660;23.316;2022-08-01T02:07:00;94382.25;;;19.41;80.46
6090;BME280;3073;42.660;23.316;2022-08-01T02:09:29;94380.66;;;19.40;79.95
6090;BME280;3073;42.660;23.316;2022-08-01T02:11:58;94376.09;;;19.37;79.73
6090;BME280;3073;42.660;23.316;2022-08-01T02:14:28;94381.16;;;19.42;76.44
6090;BME280;3073;42.660;23.316;2022-08-01T02:16:57;94372.34;;;19.43;75.03
6090;BME280;3073;42.660;23.316;2022-08-01T02:19:25;94371.75;;;19.46;74.47
6090;BME280;3073;42.660;23.316;2022-08-01T02:21:57;94379.44;;;19.37;71.37
6090;BME280;3073;42.660;23.316;2022-08-01T02:24:33;94374.94;;;19.43;71.86
6090;BME280;3073;42.660;23.316;2022-08-01T02:27:06;94373.50;;;19.37;70.43
6090;BME280;3073;42.660;23.316;2022-08-01T02:29:41;94368.31;;;19.37;73.67
6090;BME280;3073;42.660;23.316;2022-08-01T02:32:12;94376.19;;;19.32;71.17
6090;BME280;3073;42.660;23.316;2022-08-01T02:34:41;94374.19;;;19.29;70.35
6090;BME280;3073;42.660;23.316;2022-08-01T02:37:13;94375.03;;;19.38;66.61
6090;BME280;3073;42.660;23.316;2022-08-01T02:39:42;94372.13;;;19.39;67.18
6090;BME280;3073;42.660;23.316;2022-08-01T02:42:11;94376.09;;;19.37;68.42
6090;BME280;3073;42.660;23.316;2022-08-01T02:44:43;94372.25;;;19.34;69.08
6090;BME280;3073;42.660;23.316;2022-08-01T02:47:12;94372.53;;;19.33;68.28
6090;BME280;3073;42.660;23.316;2022-08-01T02:49:42;94371.78;;;19.32;70.16
6090;BME280;3073;42.660;23.316;2022-08-01T02:52:13;94371.06;;;19.18;71.92
6090;BME280;3073;42.660;23.316;2022-08-01T02:54:41;94366.00;;;19.13;74.78
6090;BME280;3073;42.660;23.316;2022-08-01T02:57:10;94370.91;;;19.15;76.43
6090;BME280;3073;42.660;23.316;2022-08-01T02:59:41;94362.94;;;19.11;76.73
6090;BME280;3073;42.660;23.316;2022-08-01T03:02:10;94367.63;;;19.09;79.28
6090;BME280;3073;42.660;23.316;2022-08-01T03:04:39;94363.22;;;19.10;79.01
6090;BME280;3073;42.660;23.316;2022-08-01T03:07:09;94369.34;;;19.14;79.68
6090;BME280;3073;42.660;23.316;2022-08-01T03:09:38;94361.50;;;19.05;82.83
6090;BME280;3073;42.660;23.316;2022-08-01T03:12:11;94363.84;;;18.93;86.76
6090;BME280;3073;42.660;23.316;2022-08-01T03:14:42;94373.22;;;18.89;90.34
6090;BME280;3073;42.660;23.316;2022-08-01T03:17:10;94370.00;;;18.83;90.75
6090;BME280;3073;42.660;23.316;2022-08-01T03:19:38;94370.75;;;18.84;92.83
6090;BME280;3073;42.660;23.316;2022-08-01T03:22:07;94369.22;;;18.83;94.10
6090;BME280;3073;42.660;23.316;2022-08-01T03:24:35;94366.56;;;18.74;93.94
6090;BME280;3073;42.660;23.316;2022-08-01T03:27:06;94375.06;;;18.75;94.80
6090;BME280;3073;42.660;23.316;2022-08-01T03:29:34;94382.16;;;18.69;95.08
6090;BME280;3073;42.660;23.316;2022-08-01T03:32:04;94376.22;;;18.69;96.44
6090;BME280;3073;42.660;23.316;2022-08-01T03:34:31;94385.31;;;18.66;100.00
6090;BME280;3073;42.660;23.316;2022-08-01T03:37:05;94386.09;;;18.67;100.00
6090;BME280;3073;42.660;23.316;2022-08-01T03:39:37;94382.47;;;18.68;99.93
6090;BME280;3073;42.660;23.316;2022-08-01T03:42:20;94381.69;;;18.67;100.00
6090;BME280;3073;42.660;23.316;2022-08-01T03:44:54;94380.75;;;18.63;99.98
6090;BME280;3073;42.660;23.316;2022-08-01T03:47:27;94375.38;;;18.73;98.68
6090;BME280;3073;42.660;23.316;2022-08-01T03:49:57;94373.84;;;18.72;99.68
6090;BME280;3073;42.660;23.316;2022-08-01T03:52:25;94381.13;;;18.70;98.73
6090;BME280;3073;42.660;23.316;2022-08-01T03:54:55;94379.38;;;18.79;100.00
6090;BME280;3073;42.660;23.316;2022-08-01T03:57:23;94381.19;;;18.79;100.00
6090;BME280;3073;42.660;23.316;2022-08-01T03:59:51;94372.84;;;18.82;91.35
6090;BME280;3073;42.660;23.316;2022-08-01T04:02:18;94376.00;;;18.92;94.47
6090;BME280;3073;42.660;23.316;2022-08-01T04:04:47;94376.69;;;18.98;94.36
6090;BME280;3073;42.660;23.316;2022-08-01T04:07:22;94376.69;;;18.98;94.26
6090;BME280;3073;42.660;23.316;2022-08-01T04:09:49;94375.69;;;19.08;92.60
6090;BME280;3073;42.660;23.316;2022-08-01T04:12:16;94383.69;;;19.20;90.29
6090;BME280;3073;42.660;23.316;2022-08-01T04:14:45;94380.13;;;19.29;91.25
6090;BME280;3073;42.660;23.316;2022-08-01T04:17:12;94381.06;;;19.33;93.43
6090;BME280;3073;42.660;23.316;2022-08-01T04:19:39;94380.50;;;19.36;99.70
6090;BME280;3073;42.660;23.316;2022-08-01T04:22:08;94389.13;;;19.32;100.00
6090;BME280;3073;42.660;23.316;2022-08-01T04:24:36;94384.44;;;19.34;100.00
6090;BME280;3073;42.660;23.316;2022-08-01T04:27:06;94385.94;;;19.35;100.00
6090;BME280;3073;42.660;23.316;2022-08-01T04:29:37;94385.94;;;19.35;100.00
6090;BME280;3073;42.660;23.316;2022-08-01T04:32:05;94384.53;;;19.42;98.29
6090;BME280;3073;42.660;23.316;2022-08-01T04:34:34;94385.38;;;19.38;97.62
6090;BME280;3073;42.660;23.316;2022-08-01T04:37:09;94382.13;;;19.46;98.90
6090;BME280;3073;42.660;23.316;2022-08-01T04:39:39;94391.53;;;19.64;98.13
6090;BME280;3073;42.660;23.316;2022-08-01T04:42:08;94383.34;;;19.71;100.00
6090;BME280;3073;42.660;23.316;2022-08-01T04:44:36;94387.06;;;19.56;100.00
6090;BME280;3073;42.660;23.316;2022-08-01T04:47:05;94385.03;;;19.75;100.00
6090;BME280;3073;42.660;23.316;2022-08-01T04:49:33;94389.06;;;19.59;100.00
6090;BME280;3073;42.660;23.316;2022-08-01T04:52:01;94393.41;;;19.72;100.00
6090;BME280;3073;42.660;23.316;2022-08-01T04:54:30;94390.22;;;19.75;100.00
6090;BME280;3073;42.660;23.316;2022-08-01T04:56:59;94395.56;;;19.79;100.00
6090;BME280;3073;42.660;23.316;2022-08-01T04:59:28;94392.47;;;19.90;100.00
6090;BME280;3073;42.660;23.316;2022-08-01T05:02:09;94391.69;;;19.90;100.00
6090;BME280;3073;42.660;23.316;2022-08-01T05:04:37;94396.09;;;19.89;100.00
6090;BME280;3073;42.660;23.316;2022-08-01T05:07:06;94384.56;;;19.95;100.00
6090;BME280;3073;42.660;23.316;2022-08-01T05:09:35;94386.22;;;19.91;100.00
6090;BME280;3073;42.660;23.316;2022-08-01T05:12:03;94377.00;;;20.08;100.00
6090;BME280;3073;42.660;23.316;2022-08-01T05:14:31;94383.09;;;20.12;100.00
6090;BME280;3073;42.660;23.316;2022-08-01T05:16:59;94383.44;;;20.19;100.00
6090;BME280;3073;42.660;23.316;2022-08-01T05:19:28;94388.94;;;20.17;100.00
6090;BME280;3073;42.660;23.316;2022-08-01T05:21:57;94386.81;;;20.19;100.00
6090;BME280;3073;42.660;23.316;2022-08-01T05:24:27;94385.53;;;20.30;100.00
6090;BME280;3073;42.660;23.316;2022-08-01T05:26:56;94384.59;;;20.35;100.00
6090;BME280;3073;42.660;23.316;2022-08-01T05:29:24;94381.28;;;20.34;100.00
6090;BME280;3073;42.660;23.316;2022-08-01T05:31:51;94378.53;;;20.39;100.00
6090;BME280;3073;42.660;23.316;2022-08-01T05:34:19;94379.13;;;20.36;100.00
6090;BME280;3073;42.660;23.316;2022-08-01T05:36:46;94376.16;;;20.60;100.00
6090;BME280;3073;42.660;23.316;2022-08-01T05:39:13;94376.06;;;20.74;100.00
6090;BME280;3073;42.660;23.316;2022-08-01T05:41:41;94373.47;;;20.82;100.00
6090;BME280;3073;42.660;23.316;2022-08-01T05:44:09;94389.84;;;20.91;94.12
6090;BME280;3073;42.660;23.316;2022-08-01T05:46:37;94377.94;;;21.08;98.96
6090;BME280;3073;42.660;23.316;2022-08-01T05:49:04;94376.91;;;21.17;94.71
6090;BME280;3073;42.660;23.316;2022-08-01T05:51:31;94376.78;;;21.31;97.15
6090;BME280;3073;42.660;23.316;2022-08-01T05:53:59;94387.13;;;21.65;88.93
6090;BME280;3073;42.660;23.316;2022-08-01T05:56:28;94379.00;;;22.01;77.18
6090;BME280;3073;42.660;23.316;2022-08-01T05:58:55;94378.72;;;22.32;70.51
6090;BME280;3073;42.660;23.316;2022-08-01T06:01:23;94382.06;;;23.08;69.40
6090;BME280;3073;42.660;23.316;2022-08-01T06:03:50;94381.72;;;23.72;64.90
6090;BME280;3073;42.660;23.316;2022-08-01T06:06:18;94385.91;;;23.23;63.56
6090;BME280;3073;42.660;23.316;2022-08-01T06:08:45;94389.28;;;23.02;62.51
6090;BME280;3073;42.660;23.316;2022-08-01T06:11:12;94398.53;;;23.41;63.69
6090;BME280;3073;42.660;23.316;2022-08-01T06:13:39;94393.34;;;23.74;61.09
6090;BME280;3073;42.660;23.316;2022-08-01T06:16:05;94389.59;;;24.29;57.84
6090;BME280;3073;42.660;23.316;2022-08-01T06:18:35;94385.66;;;24.23;57.38
6090;BME280;3073;42.660;23.316;2022-08-01T06:21:02;94399.19;;;24.49;56.90
6090;BME280;3073;42.660;23.316;2022-08-01T06:23:29;94392.44;;;24.36;56.03
6090;BME280;3073;42.660;23.316;2022-08-01T06:25:56;94400.28;;;25.08;55.02
6090;BME280;3073;42.660;23.316;2022-08-01T06:28:23;94404.56;;;25.29;53.23
6090;BME280;3073;42.660;23.316;2022-08-01T06:30:50;94395.53;;;25.50;53.53
6090;BME280;3073;42.660;23.316;2022-08-01T06:33:18;94391.19;;;25.30;53.92
6090;BME280;3073;42.660;23.316;2022-08-01T06:35:47;94393.72;;;24.42;54.60
6090;BME280;3073;42.660;23.316;2022-08-01T06:38:14;94382.97;;;24.55;54.59
6090;BME280;3073;42.660;23.316;2022-08-01T06:40:41;94389.38;;;24.22;55.71
6090;BME280;3073;42.660;23.316;2022-08-01T06:43:07;94386.34;;;24.56;54.94
6090;BME280;3073;42.660;23.316;2022-08-01T06:45:36;94388.53;;;24.78;55.35
6090;BME280;3073;42.660;23.316;2022-08-01T06:48:03;94386.50;;;24.84;55.25
6090;BME280;3073;42.660;23.316;2022-08-01T06:50:31;94384.06;;;24.67;55.56
6090;BME280;3073;42.660;23.316;2022-08-01T06:52:59;94382.28;;;25.19;54.36
6090;BME280;3073;42.660;23.316;2022-08-01T06:55:26;94382.19;;;25.28;53.55
6090;BME280;3073;42.660;23.316;2022-08-01T06:57:53;94368.53;;;24.94;54.07
6090;BME280;3073;42.660;23.316;2022-08-01T07:00:21;94379.94;;;25.54;54.09
6090;BME280;3073;42.660;23.316;2022-08-01T07:02:48;94373.22;;;25.41;53.72
6090;BME280;3073;42.660;23.316;2022-08-01T07:05:17;94367.56;;;25.94;53.39
6090;BME280;3073;42.660;23.316;2022-08-01T07:07:44;94367.63;;;25.15;54.33
6090;BME280;3073;42.660;23.316;2022-08-01T07:10:13;94376.81;;;24.84;55.77
6090;BME280;3073;42.660;23.316;2022-08-01T07:12:39;94361.69;;;24.53;56.01
6090;BME280;3073;42.660;23.316;2022-08-01T07:15:09;94376.59;;;24.89;57.14
6090;BME280;3073;42.660;23.316;2022-08-01T07:17:37;94382.66;;;25.57;55.22
6090;BME280;3073;42.660;23.316;2022-08-01T07:20:06;94378.41;;;25.53;55.00
6090;BME280;3073;42.660;23.316;2022-08-01T07:22:34;94375.25;;;24.95;55.49
6090;BME280;3073;42.660;23.316;2022-08-01T07:25:01;94369.16;;;24.79;55.54
6090;BME280;3073;42.660;23.316;2022-08-01T07:27:29;94395.25;;;25.16;56.51
6090;BME280;3073;42.660;23.316;2022-08-01T07:29:56;94373.97;;;25.01;55.87
6090;BME280;3073;42.660;23.316;2022-08-01T07:32:24;94382.03;;;24.48;57.95
6090;BME280;3073;42.660;23.316;2022-08-01T07:34:51;94385.28;;;24.81;56.71
6090;BME280;3073;42.660;23.316;2022-08-01T07:37:18;94371.34;;;24.89;56.57
6090;BME280;3073;42.660;23.316;2022-08-01T07:39:45;94372.34;;;24.97;56.99
6090;BME280;3073;42.660;23.316;2022-08-01T07:42:13;94374.72;;;25.54;56.11
6090;BME280;3073;42.660;23.316;2022-08-01T07:44:41;94370.31;;;25.86;54.41
6090;BME280;3073;42.660;23.316;2022-08-01T07:47:08;94385.38;;;26.04;53.11
6090;BME280;3073;42.660;23.316;2022-08-01T07:49:35;94376.66;;;26.28;51.87
6090;BME280;3073;42.660;23.316;2022-08-01T07:52:02;94373.78;;;25.34;53.29
6090;BME280;3073;42.660;23.316;2022-08-01T07:54:29;94370.69;;;26.00;52.73
6090;BME280;3073;42.660;23.316;2022-08-01T07:56:56;94370.78;;;26.03;51.88
6090;BME280;3073;42.660;23.316;2022-08-01T07:59:23;94371.94;;;25.90;52.97
6090;BME280;3073;42.660;23.316;2022-08-01T08:01:52;94378.91;;;25.71;52.84
6090;BME280;3073;42.660;23.316;2022-08-01T08:04:19;94376.25;;;25.98;52.51
6090;BME280;3073;42.660;23.316;2022-08-01T08:06:46;94360.31;;;25.60;51.80
6090;BME280;3073;42.660;23.316;2022-08-01T08:09:14;94375.34;;;26.06;52.96
6090;BME280;3073;42.660;23.316;2022-08-01T08:11:42;94381.41;;;26.10;51.77
6090;BME280;3073;42.660;23.316;2022-08-01T08:14:10;94378.34;;;27.02;51.55
6090;BME280;3073;42.660;23.316;2022-08-01T08:16:37;94373.84;;;26.37;51.17
6090;BME280;3073;42.660;23.316;2022-08-01T08:19:05;94377.41;;;26.44;50.73
6090;BME280;3073;42.660;23.316;2022-08-01T08:21:32;94369.59;;;26.79;50.63
6090;BME280;3073;42.660;23.316;2022-08-01T08:24:00;94377.03;;;26.93;49.45
6090;BME280;3073;42.660;23.316;2022-08-01T08:26:44;94376.19;;;26.73;50.17
6090;BME280;3073;42.660;23.316;2022-08-01T08:29:12;94364.88;;;27.20;49.51
6090;BME280;3073;42.660;23.316;2022-08-01T08:31:38;94384.97;;;27.70;48.87
6090;BME280;3073;42.660;23.316;2022-08-01T08:34:07;94377.53;;;26.98;48.86
6090;BME280;3073;42.660;23.316;2022-08-01T08:36:34;94371.41;;;27.64;47.69
6090;BME280;3073;42.660;23.316;2022-08-01T08:39:03;94364.66;;;27.44;47.75
6090;BME280;3073;42.660;23.316;2022-08-01T08:41:30;94371.69;;;27.05;48.13
6090;BME280;3073;42.660;23.316;2022-08-01T08:43:57;94372.31;;;26.67;50.16
6090;BME280;3073;42.660;23.316;2022-08-01T08:46:26;94377.91;;;26.50;49.31
6090;BME280;3073;42.660;23.316;2022-08-01T08:48:54;94375.63;;;25.34;49.79
6090;BME280;3073;42.660;23.316;2022-08-01T08:51:23;94373.19;;;25.81;50.46
6090;BME280;3073;42.660;23.316;2022-08-01T08:53:53;94360.03;;;26.52;49.43
6090;BME280;3073;42.660;23.316;2022-08-01T08:56:23;94358.53;;;27.01;47.35
6090;BME280;3073;42.660;23.316;2022-08-01T08:58:52;94375.63;;;26.33;48.81
6090;BME280;3073;42.660;23.316;2022-08-01T09:01:19;94362.69;;;26.08;49.23
6090;BME280;3073;42.660;23.316;2022-08-01T09:03:47;94375.34;;;26.06;48.26
6090;BME280;3073;42.660;23.316;2022-08-01T09:06:14;94373.44;;;26.35;45.96
6090;BME280;3073;42.660;23.316;2022-08-01T09:08:42;94373.00;;;26.64;46.31
6090;BME280;3073;42.660;23.316;2022-08-01T09:11:09;94368.69;;;26.56;45.65
6090;BME280;3073;42.660;23.316;2022-08-01T09:13:36;94355.06;;;25.88;44.91
6090;BME280;3073;42.660;23.316;2022-08-01T09:16:04;94349.50;;;26.83;46.16
6090;BME280;3073;42.660;23.316;2022-08-01T09:18:32;94351.59;;;27.28;44.60
6090;BME280;3073;42.660;23.316;2022-08-01T09:21:11;94343.16;;;27.77;44.10
6090;BME280;3073;42.660;23.316;2022-08-01T09:23:44;94357.38;;;28.18;43.61
6090;BME280;3073;42.660;23.316;2022-08-01T09:26:12;94349.16;;;27.20;45.25
6090;BME280;3073;42.660;23.316;2022-08-01T09:28:40;94362.19;;;26.66;45.16
6090;BME280;3073;42.660;23.316;2022-08-01T09:31:08;94347.97;;;27.52;44.26
6090;BME280;3073;42.660;23.316;2022-08-01T09:33:53;94345.44;;;27.78;43.91
6090;BME280;3073;42.660;23.316;2022-08-01T09:36:21;94341.88;;;28.32;43.66
6090;BME280;3073;42.660;23.316;2022-08-01T09:38:50;94345.25;;;28.32;44.22
6090;BME280;3073;42.660;23.316;2022-08-01T09:41:28;94349.38;;;27.49;45.01
6090;BME280;3073;42.660;23.316;2022-08-01T09:43:56;94350.91;;;28.11;43.97
6090;BME280;3073;42.660;23.316;2022-08-01T09:46:23;94338.13;;;28.55;43.86
6090;BME280;3073;42.660;23.316;2022-08-01T09:48:56;94356.97;;;28.16;46.08
6090;BME280;3073;42.660;23.316;2022-08-01T09:51:31;94346.41;;;28.35;44.81
6090;BME280;3073;42.660;23.316;2022-08-01T09:54:01;94349.69;;;29.03;42.99
6090;BME280;3073;42.660;23.316;2022-08-01T09:56:36;94343.88;;;28.64;42.92
6090;BME280;3073;42.660;23.316;2022-08-01T09:59:04;94349.91;;;27.39;47.10
6090;BME280;3073;42.660;23.316;2022-08-01T10:01:43;94343.44;;;28.85;46.25
6090;BME280;3073;42.660;23.316;2022-08-01T10:04:12;94347.94;;;29.78;44.57
6090;BME280;3073;42.660;23.316;2022-08-01T10:06:41;94343.31;;;30.01;43.41
6090;BME280;3073;42.660;23.316;2022-08-01T10:09:12;94335.28;;;29.53;42.71
6090;BME280;3073;42.660;23.316;2022-08-01T10:11:41;94338.03;;;28.75;42.53
6090;BME280;3073;42.660;23.316;2022-08-01T10:14:08;94329.69;;;28.20;43.96
6090;BME280;3073;42.660;23.316;2022-08-01T10:16:38;94325.94;;;28.44;43.74
6090;BME280;3073;42.660;23.316;2022-08-01T10:19:07;94326.38;;;28.49;44.27
6090;BME280;3073;42.660;23.316;2022-08-01T10:21:34;94341.38;;;29.28;43.24
6090;BME280;3073;42.660;23.316;2022-08-01T10:24:05;94314.28;;;28.41;44.92
6090;BME280;3073;42.660;23.316;2022-08-01T10:26:33;94324.88;;;29.64;42.39
6090;BME280;3073;42.660;23.316;2022-08-01T10:29:01;94313.94;;;29.25;40.57
6090;BME280;3073;42.660;23.316;2022-08-01T10:31:30;94320.56;;;29.16;42.43
6090;BME280;3073;42.660;23.316;2022-08-01T10:34:01;94316.28;;;29.34;42.74
6090;BME280;3073;42.660;23.316;2022-08-01T10:36:29;94309.53;;;28.50;42.71
6090;BME280;3073;42.660;23.316;2022-08-01T10:38:58;94319.78;;;28.10;44.75
6090;BME280;3073;42.660;23.316;2022-08-01T10:41:25;94323.69;;;28.46;45.20
6090;BME280;3073;42.660;23.316;2022-08-01T10:43:56;94312.66;;;28.10;43.66
6090;BME280;3073;42.660;23.316;2022-08-01T10:46:24;94321.91;;;28.76;42.97
6090;BME280;3073;42.660;23.316;2022-08-01T10:48:56;94314.63;;;28.92;42.57
6090;BME280;3073;42.660;23.316;2022-08-01T10:51:26;94325.50;;;29.50;42.56
6090;BME280;3073;42.660;23.316;2022-08-01T10:53:54;94320.84;;;28.54;42.29
6090;BME280;3073;42.660;23.316;2022-08-01T10:56:23;94316.13;;;28.41;42.86
6090;BME280;3073;42.660;23.316;2022-08-01T10:59:04;94304.91;;;28.18;43.89
6090;BME280;3073;42.660;23.316;2022-08-01T11:01:32;94312.88;;;28.25;42.92
6090;BME280;3073;42.660;23.316;2022-08-01T11:04:06;94300.59;;;28.55;43.36
6090;BME280;3073;42.660;23.316;2022-08-01T11:09:29;94300.22;;;29.12;42.18
6090;BME280;3073;42.660;23.316;2022-08-01T11:12:01;94296.94;;;28.89;42.39
6090;BME280;3073;42.660;23.316;2022-08-01T11:14:32;94305.13;;;29.44;41.99
6090;BME280;3073;42.660;23.316;2022-08-01T11:17:32;94293.59;;;28.89;41.91
6090;BME280;3073;42.660;23.316;2022-08-01T11:20:07;94307.69;;;29.37;41.44
6090;BME280;3073;42.660;23.316;2022-08-01T11:26:21;94304.72;;;30.67;39.95
6090;BME280;3073;42.660;23.316;2022-08-01T11:29:11;94295.41;;;29.48;41.16
6090;BME280;3073;42.660;23.316;2022-08-01T11:31:40;94285.34;;;29.57;42.05
6090;BME280;3073;42.660;23.316;2022-08-01T11:34:07;94294.63;;;30.25;41.32
6090;BME280;3073;42.660;23.316;2022-08-01T11:36:35;94289.63;;;30.12;40.14
6090;BME280;3073;42.660;23.316;2022-08-01T11:39:16;94289.53;;;30.42;40.34
6090;BME280;3073;42.660;23.316;2022-08-01T11:41:45;94286.81;;;29.88;41.54
6090;BME280;3073;42.660;23.316;2022-08-01T11:44:14;94286.59;;;30.07;41.51
6090;BME280;3073;42.660;23.316;2022-08-01T11:46:47;94295.34;;;30.73;39.88
6090;BME280;3073;42.660;23.316;2022-08-01T11:49:32;94280.53;;;31.23;39.30
6090;BME280;3073;42.660;23.316;2022-08-01T11:52:00;94294.38;;;29.96;41.38
6090;BME280;3073;42.660;23.316;2022-08-01T11:54:29;94285.69;;;29.52;42.16
6090;BME280;3073;42.660;23.316;2022-08-01T11:56:57;94295.41;;;30.29;42.00
6090;BME280;3073;42.660;23.316;2022-08-01T11:59:24;94288.88;;;29.72;40.70
6090;BME280;3073;42.660;23.316;2022-08-01T12:01:55;94294.28;;;30.30;41.10
6090;BME280;3073;42.660;23.316;2022-08-01T12:04:21;94278.31;;;31.32;39.98
6090;BME280;3073;42.660;23.316;2022-08-01T12:06:48;94279.91;;;31.61;38.45
6090;BME280;3073;42.660;23.316;2022-08-01T12:09:20;94277.25;;;31.54;39.32
6090;BME280;3073;42.660;23.316;2022-08-01T12:11:47;94288.16;;;30.66;40.65
6090;BME280;3073;42.660;23.316;2022-08-01T12:14:19;94283.88;;;29.96;41.55
6090;BME280;3073;42.660;23.316;2022-08-01T12:16:51;94283.13;;;29.26;42.08
6090;BME280;3073;42.660;23.316;2022-08-01T12:19:21;94281.28;;;29.63;41.45
6090;BME280;3073;42.660;23.316;2022-08-01T12:22:10;94292.22;;;30.56;40.76
6090;BME280;3073;42.660;23.316;2022-08-01T12:24:40;94281.56;;;31.00;39.23
6090;BME280;3073;42.660;23.316;2022-08-01T12:27:08;94282.06;;;29.67;40.67
6090;BME280;3073;42.660;23.316;2022-08-01T12:29:37;94285.16;;;29.76;40.99
6090;BME280;3073;42.660;23.316;2022-08-01T12:32:21;94277.81;;;31.01;39.95
6090;BME280;3073;42.660;23.316;2022-08-01T12:34:50;94278.88;;;32.11;39.20
6090;BME280;3073;42.660;23.316;2022-08-01T12:37:17;94289.53;;;30.46;39.37
6090;BME280;3073;42.660;23.316;2022-08-01T12:39:45;94273.13;;;30.70;40.88
6090;BME280;3073;42.660;23.316;2022-08-01T12:42:13;94286.44;;;30.95;39.58
6090;BME280;3073;42.660;23.316;2022-08-01T12:44:43;94296.88;;;30.26;40.73
6090;BME280;3073;42.660;23.316;2022-08-01T12:47:11;94291.28;;;30.31;40.36
6090;BME280;3073;42.660;23.316;2022-08-01T12:49:41;94279.94;;;29.80;40.48
6090;BME280;3073;42.660;23.316;2022-08-01T12:52:10;94291.16;;;30.13;40.16
6090;BME280;3073;42.660;23.316;2022-08-01T12:55:00;94271.63;;;30.76;40.36
6090;BME280;3073;42.660;23.316;2022-08-01T12:57:28;94280.50;;;30.47;39.72
6090;BME280;3073;42.660;23.316;2022-08-01T13:00:08;94281.19;;;29.56;41.05
6090;BME280;3073;42.660;23.316;2022-08-01T13:02:36;94283.03;;;27.87;42.96
6090;BME280;3073;42.660;23.316;2022-08-01T13:05:05;94269.03;;;28.51;42.46
6090;BME280;3073;42.660;23.316;2022-08-01T13:07:41;94268.41;;;29.51;41.90
6090;BME280;3073;42.660;23.316;2022-08-01T13:10:10;94266.78;;;30.24;41.10
6090;BME280;3073;42.660;23.316;2022-08-01T13:12:38;94270.97;;;30.28;40.10
6090;BME280;3073;42.660;23.316;2022-08-01T13:15:17;94268.56;;;30.12;41.71
6090;BME280;3073;42.660;23.316;2022-08-01T13:17:44;94264.00;;;30.57;40.65
6090;BME280;3073;42.660;23.316;2022-08-01T13:20:21;94260.41;;;30.90;39.81
6090;BME280;3073;42.660;23.316;2022-08-01T13:22:50;94267.44;;;29.33;41.82
6090;BME280;3073;42.660;23.316;2022-08-01T13:25:19;94265.03;;;29.21;42.45
6090;BME280;3073;42.660;23.316;2022-08-01T13:27:46;94264.38;;;29.64;42.12